KENL/ENL METAR and TAF weather

Enter ICAO airport designator
Station Type Date Time Source
KENL METAR 2019/05/19 20:55 UTC NOAA

KENL 192055Z AUTO 26021G26KT 10SM CLR 26/17 A2975 RMK AO2 60006 T02550168


Station Type Date Time Source
KENL Decoded METAR 2019/05/19 20:55 UTC NOAA

Centralia, Centralia Municipal Airport, IL, United States (KENL) 38-30-53N 089-05-32W
May 19, 2019 - 04:55 PM EDT / 2019.05.19 2055 UTC
Wind: from the W (260 degrees) at 24 MPH (21 KT) gusting to 30 MPH (26 KT):0
Visibility: 10 mile(s):0
Sky conditions: clear
Temperature: 77.9 F (25.5 C)
Dew Point: 62.2 F (16.8 C)
Relative Humidity: 58%
Pressure (altimeter): 29.75 in. Hg (1007 hPa)
ob: KENL 192055Z AUTO 26021G26KT 10SM CLR 26/17 A2975 RMK AO2 60006 T02550168
cycle: 21

Station Type Date Time Source
KENL TAF UTC NOAA

Error!

Example: see airport list